sensor_id;sensor_type;location;lat;lon;timestamp;pressure;altitude;pressure_sealevel;temperature;humidity
22389;BME280;11362;48.102;11.620;2023-03-03T00:00:45;95218.31;;;23.39;29.07
22389;BME280;11362;48.102;11.620;2023-03-03T00:03:14;95223.84;;;23.39;29.21
22389;BME280;11362;48.102;11.620;2023-03-03T00:05:40;95226.63;;;23.39;29.11
22389;BME280;11362;48.102;11.620;2023-03-03T00:08:05;95225.41;;;23.40;29.13
22389;BME280;11362;48.102;11.620;2023-03-03T00:10:31;95223.84;;;23.39;29.12
22389;BME280;11362;48.102;11.620;2023-03-03T00:12:56;95225.81;;;23.38;29.13
22389;BME280;11362;48.102;11.620;2023-03-03T00:15:23;95220.28;;;23.38;29.18
22389;BME280;11362;48.102;11.620;2023-03-03T00:17:50;95223.06;;;23.38;29.15
22389;BME280;11362;48.102;11.620;2023-03-03T00:20:29;95223.06;;;23.38;29.17
22389;BME280;11362;48.102;11.620;2023-03-03T00:22:55;95229.41;;;23.39;29.11
22389;BME280;11362;48.102;11.620;2023-03-03T00:25:30;95223.06;;;23.38;29.16
22389;BME280;11362;48.102;11.620;2023-03-03T00:28:07;95221.84;;;23.39;29.10
22389;BME280;11362;48.102;11.620;2023-03-03T00:30:40;95217.50;;;23.38;29.04
22389;BME280;11362;48.102;11.620;2023-03-03T00:33:30;95214.75;;;23.38;29.05
22389;BME280;11362;48.102;11.620;2023-03-03T00:35:56;95213.97;;;23.38;29.06
22389;BME280;11362;48.102;11.620;2023-03-03T00:38:22;95215.94;;;23.38;28.93
22389;BME280;11362;48.102;11.620;2023-03-03T00:40:47;95221.50;;;23.38;29.01
22389;BME280;11362;48.102;11.620;2023-03-03T00:43:19;95218.72;;;23.38;29.06
22389;BME280;11362;48.102;11.620;2023-03-03T00:45:50;95227.84;;;23.38;28.98
22389;BME280;11362;48.102;11.620;2023-03-03T00:48:20;95218.72;;;23.38;29.05
22389;BME280;11362;48.102;11.620;2023-03-03T00:50:46;95219.50;;;23.38;29.14
22389;BME280;11362;48.102;11.620;2023-03-03T00:53:17;95231.38;;;23.38;28.97
22389;BME280;11362;48.102;11.620;2023-03-03T00:55:43;95220.28;;;23.38;28.90
22389;BME280;11362;48.102;11.620;2023-03-03T00:58:09;95230.59;;;23.38;29.02
22389;BME280;11362;48.102;11.620;2023-03-03T01:00:36;95233.38;;;23.38;29.00
22389;BME280;11362;48.102;11.620;2023-03-03T01:03:04;95229.00;;;23.37;28.87
22389;BME280;11362;48.102;11.620;2023-03-03T01:05:30;95232.56;;;23.38;29.13
22389;BME280;11362;48.102;11.620;2023-03-03T01:07:55;95232.56;;;23.38;29.01
22389;BME280;11362;48.102;11.620;2023-03-03T01:10:20;95231.38;;;23.38;28.96
22389;BME280;11362;48.102;11.620;2023-03-03T01:12:46;95233.38;;;23.38;28.61
22389;BME280;11362;48.102;11.620;2023-03-03T01:15:12;95231.38;;;23.38;29.00
22389;BME280;11362;48.102;11.620;2023-03-03T01:17:38;95229.81;;;23.38;28.99
22389;BME280;11362;48.102;11.620;2023-03-03T01:20:06;95225.81;;;23.38;28.88
22389;BME280;11362;48.102;11.620;2023-03-03T01:22:31;95221.50;;;23.38;28.86
22389;BME280;11362;48.102;11.620;2023-03-03T01:24:57;95225.47;;;23.37;28.85
22389;BME280;11362;48.102;11.620;2023-03-03T01:27:22;95208.84;;;23.37;28.99
22389;BME280;11362;48.102;11.620;2023-03-03T01:29:47;95215.94;;;23.38;28.83
22389;BME280;11362;48.102;11.620;2023-03-03T01:32:13;95217.50;;;23.38;28.87
22389;BME280;11362;48.102;11.620;2023-03-03T01:34:38;95215.94;;;23.38;28.81
22389;BME280;11362;48.102;11.620;2023-03-03T01:37:03;95216.75;;;23.38;28.81
22389;BME280;11362;48.102;11.620;2023-03-03T01:39:28;95211.97;;;23.38;28.82
22389;BME280;11362;48.102;11.620;2023-03-03T01:41:54;95211.19;;;23.38;28.96
22389;BME280;11362;48.102;11.620;2023-03-03T01:44:19;95207.63;;;23.38;28.88
22389;BME280;11362;48.102;11.620;2023-03-03T01:49:55;95196.94;;;23.36;28.76
22389;BME280;11362;48.102;11.620;2023-03-03T01:54:57;95197.38;;;23.35;28.74
22389;BME280;11362;48.102;11.620;2023-03-03T01:57:29;95196.94;;;23.36;28.91
22389;BME280;11362;48.102;11.620;2023-03-03T01:59:57;95199.72;;;23.36;28.81
22389;BME280;11362;48.102;11.620;2023-03-03T02:02:26;95203.28;;;23.37;28.67
22389;BME280;11362;48.102;11.620;2023-03-03T02:04:52;95198.97;;;23.36;28.81
22389;BME280;11362;48.102;11.620;2023-03-03T02:07:18;95196.19;;;23.36;28.75
22389;BME280;11362;48.102;11.620;2023-03-03T02:10:11;95194.19;;;23.36;28.67
22389;BME280;11362;48.102;11.620;2023-03-03T02:12:48;95200.13;;;23.38;28.71
22389;BME280;11362;48.102;11.620;2023-03-03T02:17:40;95196.94;;;23.36;28.73
22389;BME280;11362;48.102;11.620;2023-03-03T02:20:11;95201.28;;;23.37;28.66
22389;BME280;11362;48.102;11.620;2023-03-03T02:22:50;95194.97;;;23.37;28.69
22389;BME280;11362;48.102;11.620;2023-03-03T02:25:27;95197.75;;;23.37;28.77
22389;BME280;11362;48.102;11.620;2023-03-03T02:27:56;95198.50;;;23.37;28.71
22389;BME280;11362;48.102;11.620;2023-03-03T02:30:22;95196.53;;;23.38;28.64
22389;BME280;11362;48.102;11.620;2023-03-03T02:32:48;95200.13;;;23.38;28.61
22389;BME280;11362;48.102;11.620;2023-03-03T02:35:39;95200.53;;;23.37;28.74
22389;BME280;11362;48.102;11.620;2023-03-03T02:41:24;95206.06;;;23.37;28.59
22389;BME280;11362;48.102;11.620;2023-03-03T02:43:56;95206.06;;;23.37;28.58
22389;BME280;11362;48.102;11.620;2023-03-03T02:46:23;95215.94;;;23.38;28.71
22389;BME280;11362;48.102;11.620;2023-03-03T02:48:49;95207.63;;;23.38;28.49
22389;BME280;11362;48.102;11.620;2023-03-03T02:51:14;95197.75;;;23.37;28.71
22389;BME280;11362;48.102;11.620;2023-03-03T02:53:40;95192.19;;;23.37;28.54
22389;BME280;11362;48.102;11.620;2023-03-03T02:56:05;95200.53;;;23.37;28.62
22389;BME280;11362;48.102;11.620;2023-03-03T02:58:31;95204.06;;;23.37;28.58
22389;BME280;11362;48.102;11.620;2023-03-03T03:00:56;95204.84;;;23.38;28.44
22389;BME280;11362;48.102;11.620;2023-03-03T03:03:22;95190.63;;;23.36;28.45
22389;BME280;11362;48.102;11.620;2023-03-03T03:05:47;95194.19;;;23.36;28.69
22389;BME280;11362;48.102;11.620;2023-03-03T03:08:12;95193.78;;;23.38;28.60
22389;BME280;11362;48.102;11.620;2023-03-03T03:10:38;95194.97;;;23.37;28.91
22389;BME280;11362;48.102;11.620;2023-03-03T03:13:03;95194.97;;;23.37;28.69
22389;BME280;11362;48.102;11.620;2023-03-03T03:15:28;95194.97;;;23.37;28.67
22389;BME280;11362;48.102;11.620;2023-03-03T03:17:54;95191.41;;;23.36;28.57
22389;BME280;11362;48.102;11.620;2023-03-03T03:20:19;95197.75;;;23.37;28.66
22389;BME280;11362;48.102;11.620;2023-03-03T03:22:44;95191.00;;;23.38;28.56
22389;BME280;11362;48.102;11.620;2023-03-03T03:25:10;95189.44;;;23.37;28.75
22389;BME280;11362;48.102;11.620;2023-03-03T03:27:35;95193.41;;;23.36;28.54
22389;BME280;11362;48.102;11.620;2023-03-03T03:30:00;95199.72;;;23.36;28.55
22389;BME280;11362;48.102;11.620;2023-03-03T03:32:26;95204.84;;;23.38;28.54
22389;BME280;11362;48.102;11.620;2023-03-03T03:34:51;95203.28;;;23.37;28.55
22389;BME280;11362;48.102;11.620;2023-03-03T03:37:16;95197.75;;;23.37;28.52
22389;BME280;11362;48.102;11.620;2023-03-03T03:39:41;95202.94;;;23.35;28.54
22389;BME280;11362;48.102;11.620;2023-03-03T03:42:07;95215.16;;;23.37;28.58
22389;BME280;11362;48.102;11.620;2023-03-03T03:44:32;95206.06;;;23.37;28.52
22389;BME280;11362;48.102;11.620;2023-03-03T03:46:57;95208.03;;;23.36;28.49
22389;BME280;11362;48.102;11.620;2023-03-03T03:49:23;95203.28;;;23.37;28.49
22389;BME280;11362;48.102;11.620;2023-03-03T03:51:48;95203.28;;;23.37;28.46
22389;BME280;11362;48.102;11.620;2023-03-03T03:54:13;95206.06;;;23.37;28.46
22389;BME280;11362;48.102;11.620;2023-03-03T03:56:39;95208.44;;;23.38;28.44
22389;BME280;11362;48.102;11.620;2023-03-03T03:59:05;95203.28;;;23.37;28.50
22389;BME280;11362;48.102;11.620;2023-03-03T04:01:30;95201.28;;;23.37;28.50
22389;BME280;11362;48.102;11.620;2023-03-03T04:03:56;95198.50;;;23.37;28.38
22389;BME280;11362;48.102;11.620;2023-03-03T04:06:21;95209.59;;;23.37;28.41
22389;BME280;11362;48.102;11.620;2023-03-03T04:08:46;95200.53;;;23.37;28.38
22389;BME280;11362;48.102;11.620;2023-03-03T04:11:12;95202.50;;;23.36;28.47
22389;BME280;11362;48.102;11.620;2023-03-03T04:13:37;95204.06;;;23.37;28.46
22389;BME280;11362;48.102;11.620;2023-03-03T04:16:03;95203.28;;;23.37;28.51
22389;BME280;11362;48.102;11.620;2023-03-03T04:18:28;95214.38;;;23.37;28.42
22389;BME280;11362;48.102;11.620;2023-03-03T04:20:53;95202.50;;;23.36;28.41
22389;BME280;11362;48.102;11.620;2023-03-03T04:23:19;95204.06;;;23.37;28.49
22389;BME280;11362;48.102;11.620;2023-03-03T04:25:45;95208.03;;;23.36;28.35
22389;BME280;11362;48.102;11.620;2023-03-03T04:28:11;95215.94;;;23.38;28.36
22389;BME280;11362;48.102;11.620;2023-03-03T04:30:36;95208.84;;;23.37;28.28
22389;BME280;11362;48.102;11.620;2023-03-03T04:33:02;95215.94;;;23.38;28.51
22389;BME280;11362;48.102;11.620;2023-03-03T04:35:27;95215.94;;;23.38;28.57
22389;BME280;11362;48.102;11.620;2023-03-03T04:37:52;95214.38;;;23.37;28.54
22389;BME280;11362;48.102;11.620;2023-03-03T04:40:18;95215.94;;;23.38;28.50
22389;BME280;11362;48.102;11.620;2023-03-03T04:42:43;95215.94;;;23.38;28.36
22389;BME280;11362;48.102;11.620;2023-03-03T04:45:09;95210.41;;;23.38;28.44
22389;BME280;11362;48.102;11.620;2023-03-03T04:47:34;95220.69;;;23.37;28.37
22389;BME280;11362;48.102;11.620;2023-03-03T04:50:00;95214.38;;;23.37;28.54
22389;BME280;11362;48.102;11.620;2023-03-03T04:52:25;95213.59;;;23.36;28.38
22389;BME280;11362;48.102;11.620;2023-03-03T04:54:50;95204.84;;;23.38;28.44
22389;BME280;11362;48.102;11.620;2023-03-03T04:57:15;95211.25;;;23.35;28.39
22389;BME280;11362;48.102;11.620;2023-03-03T04:59:41;95206.06;;;23.37;28.60
22389;BME280;11362;48.102;11.620;2023-03-03T05:02:06;95207.28;;;23.36;28.56
22389;BME280;11362;48.102;11.620;2023-03-03T05:04:32;95210.81;;;23.36;28.46
22389;BME280;11362;48.102;11.620;2023-03-03T05:06:57;95217.16;;;23.37;28.44
22389;BME280;11362;48.102;11.620;2023-03-03T05:09:22;95203.28;;;23.37;28.54
22389;BME280;11362;48.102;11.620;2023-03-03T05:11:47;95199.38;;;23.34;28.42
22389;BME280;11362;48.102;11.620;2023-03-03T05:14:13;95202.50;;;23.36;28.51
22389;BME280;11362;48.102;11.620;2023-03-03T05:16:38;95208.03;;;23.36;28.44
22389;BME280;11362;48.102;11.620;2023-03-03T05:19:03;95208.03;;;23.36;28.46
22389;BME280;11362;48.102;11.620;2023-03-03T05:21:29;95203.28;;;23.37;28.50
22389;BME280;11362;48.102;11.620;2023-03-03T05:23:54;95196.94;;;23.36;28.37
22389;BME280;11362;48.102;11.620;2023-03-03T05:26:19;95174.78;;;23.36;28.47
22389;BME280;11362;48.102;11.620;2023-03-03T05:28:45;95175.22;;;23.35;28.48
22389;BME280;11362;48.102;11.620;2023-03-03T05:31:10;95182.31;;;23.36;28.47
22389;BME280;11362;48.102;11.620;2023-03-03T05:33:35;95185.09;;;23.36;28.50
22389;BME280;11362;48.102;11.620;2023-03-03T05:36:00;95204.84;;;23.38;28.79
22389;BME280;11362;48.102;11.620;2023-03-03T05:38:26;95206.41;;;23.38;29.08
22389;BME280;11362;48.102;11.620;2023-03-03T05:40:51;95204.44;;;23.39;29.21
22389;BME280;11362;48.102;11.620;2023-03-03T05:43:16;95212.75;;;23.39;29.02
22389;BME280;11362;48.102;11.620;2023-03-03T05:45:41;95224.66;;;23.36;28.62
22389;BME280;11362;48.102;11.620;2023-03-03T05:48:07;95227.03;;;23.38;28.87
22389;BME280;11362;48.102;11.620;2023-03-03T05:50:32;95229.41;;;23.39;28.86
22389;BME280;11362;48.102;11.620;2023-03-03T05:52:58;95230.16;;;23.39;29.38
22389;BME280;11362;48.102;11.620;2023-03-03T05:55:23;95237.28;;;23.40;29.21
22389;BME280;11362;48.102;11.620;2023-03-03T05:57:49;95232.94;;;23.39;29.26
22389;BME280;11362;48.102;11.620;2023-03-03T06:00:15;95234.91;;;23.42;29.63
22389;BME280;11362;48.102;11.620;2023-03-03T06:02:41;95235.25;;;23.44;29.73
22389;BME280;11362;48.102;11.620;2023-03-03T06:05:07;95228.50;;;23.45;29.72
22389;BME280;11362;48.102;11.620;2023-03-03T06:07:33;95239.19;;;23.47;30.19
22389;BME280;11362;48.102;11.620;2023-03-03T06:09:58;95235.19;;;23.48;30.16
22389;BME280;11362;48.102;11.620;2023-03-03T06:12:23;95233.22;;;23.48;30.61
22389;BME280;11362;48.102;11.620;2023-03-03T06:14:49;95241.91;;;23.50;30.41
22389;BME280;11362;48.102;11.620;2023-03-03T06:17:14;95246.59;;;23.53;30.57
22389;BME280;11362;48.102;11.620;2023-03-03T06:19:39;95244.28;;;23.52;30.41
22389;BME280;11362;48.102;11.620;2023-03-03T06:22:04;95239.50;;;23.52;30.59
22389;BME280;11362;48.102;11.620;2023-03-03T06:24:30;95252.59;;;23.52;30.62
22389;BME280;11362;48.102;11.620;2023-03-03T06:26:56;95249.00;;;23.51;30.60
22389;BME280;11362;48.102;11.620;2023-03-03T06:29:22;95261.66;;;23.52;30.44
22389;BME280;11362;48.102;11.620;2023-03-03T06:31:47;95262.88;;;23.51;30.73
22389;BME280;11362;48.102;11.620;2023-03-03T06:34:13;95242.25;;;23.52;30.50
22389;BME280;11362;48.102;11.620;2023-03-03T06:36:38;95250.59;;;23.52;30.66
22389;BME280;11362;48.102;11.620;2023-03-03T06:39:03;95236.34;;;23.50;30.45
22389;BME280;11362;48.102;11.620;2023-03-03T06:41:29;95251.00;;;23.51;30.39
22389;BME280;11362;48.102;11.620;2023-03-03T06:43:54;95241.53;;;23.48;30.38
22389;BME280;11362;48.102;11.620;2023-03-03T06:46:19;95244.31;;;23.48;30.30
22389;BME280;11362;48.102;11.620;2023-03-03T06:48:45;95241.94;;;23.47;30.30
22389;BME280;11362;48.102;11.620;2023-03-03T06:53:50;95236.81;;;23.45;30.16
22389;BME280;11362;48.102;11.620;2023-03-03T06:56:17;95247.50;;;23.47;30.33
22389;BME280;11362;48.102;11.620;2023-03-03T06:58:42;95296.59;;;23.46;30.31
22389;BME280;11362;48.102;11.620;2023-03-03T07:01:15;95267.31;;;23.45;29.94
22389;BME280;11362;48.102;11.620;2023-03-03T07:03:41;95270.09;;;23.45;29.90
22389;BME280;11362;48.102;11.620;2023-03-03T07:06:15;95307.31;;;23.44;29.90
22389;BME280;11362;48.102;11.620;2023-03-03T07:08:44;95308.91;;;23.45;29.94
22389;BME280;11362;48.102;11.620;2023-03-03T07:11:11;95294.25;;;23.45;29.90
22389;BME280;11362;48.102;11.620;2023-03-03T07:13:44;95289.50;;;23.45;29.75
22389;BME280;11362;48.102;11.620;2023-03-03T07:16:11;95287.91;;;23.44;29.75
22389;BME280;11362;48.102;11.620;2023-03-03T07:21:36;95289.50;;;23.45;29.75
22389;BME280;11362;48.102;11.620;2023-03-03T07:24:24;95299.00;;;23.44;29.81
22389;BME280;11362;48.102;11.620;2023-03-03T07:26:50;95302.19;;;23.43;29.76
22389;BME280;11362;48.102;11.620;2023-03-03T07:29:25;95278.03;;;23.43;29.71
22389;BME280;11362;48.102;11.620;2023-03-03T07:31:52;95281.56;;;23.44;29.67
22389;BME280;11362;48.102;11.620;2023-03-03T07:34:22;95315.66;;;23.44;29.75
22389;BME280;11362;48.102;11.620;2023-03-03T07:37:00;95301.78;;;23.44;29.85
22389;BME280;11362;48.102;11.620;2023-03-03T07:39:33;95314.44;;;23.45;29.87
22389;BME280;11362;48.102;11.620;2023-03-03T07:42:13;95317.56;;;23.47;30.20
22389;BME280;11362;48.102;11.620;2023-03-03T07:44:39;95322.72;;;23.49;30.17
22389;BME280;11362;48.102;11.620;2023-03-03T07:47:34;95321.50;;;23.50;30.63
22389;BME280;11362;48.102;11.620;2023-03-03T07:50:10;95324.28;;;23.50;30.56
22389;BME280;11362;48.102;11.620;2023-03-03T07:52:42;95323.50;;;23.49;30.62
22389;BME280;11362;48.102;11.620;2023-03-03T07:55:26;95325.84;;;23.51;30.55
22389;BME280;11362;48.102;11.620;2023-03-03T07:57:54;95322.31;;;23.50;30.67
22389;BME280;11362;48.102;11.620;2023-03-03T08:03:02;95332.19;;;23.51;30.78
22389;BME280;11362;48.102;11.620;2023-03-03T08:08:02;95331.00;;;23.52;30.77
22389;BME280;11362;48.102;11.620;2023-03-03T08:10:55;95330.59;;;23.54;30.72
22389;BME280;11362;48.102;11.620;2023-03-03T08:13:27;95329.78;;;23.53;30.82
22389;BME280;11362;48.102;11.620;2023-03-03T08:16:02;95339.31;;;23.52;30.85
22389;BME280;11362;48.102;11.620;2023-03-03T08:18:39;95329.78;;;23.53;30.87
22389;BME280;11362;48.102;11.620;2023-03-03T08:23:40;95332.16;;;23.55;30.67
22389;BME280;11362;48.102;11.620;2023-03-03T08:26:05;95319.84;;;23.56;30.73
22389;BME280;11362;48.102;11.620;2023-03-03T08:28:31;95315.50;;;23.55;30.80
22389;BME280;11362;48.102;11.620;2023-03-03T08:30:56;95325.41;;;23.56;30.80
22389;BME280;11362;48.102;11.620;2023-03-03T08:33:22;95330.94;;;23.56;30.93
22389;BME280;11362;48.102;11.620;2023-03-03T08:35:47;95325.41;;;23.56;30.72
22389;BME280;11362;48.102;11.620;2023-03-03T08:38:14;95327.75;;;23.57;30.77
22389;BME280;11362;48.102;11.620;2023-03-03T08:40:41;95328.53;;;23.58;30.85
22389;BME280;11362;48.102;11.620;2023-03-03T08:43:06;95325.00;;;23.57;30.70
22389;BME280;11362;48.102;11.620;2023-03-03T08:45:32;95337.66;;;23.58;30.58
22389;BME280;11362;48.102;11.620;2023-03-03T08:47:58;95336.09;;;23.57;30.73
22389;BME280;11362;48.102;11.620;2023-03-03T08:50:23;95336.09;;;23.57;30.67
22389;BME280;11362;48.102;11.620;2023-03-03T08:52:48;95338.84;;;23.57;30.74
22389;BME280;11362;48.102;11.620;2023-03-03T08:55:14;95344.41;;;23.57;30.82
22389;BME280;11362;48.102;11.620;2023-03-03T08:57:39;95339.63;;;23.58;30.76
22389;BME280;11362;48.102;11.620;2023-03-03T09:00:11;95345.16;;;23.58;30.78
22389;BME280;11362;48.102;11.620;2023-03-03T09:02:37;95357.06;;;23.58;30.57
22389;BME280;11362;48.102;11.620;2023-03-03T09:05:03;95348.75;;;23.58;30.67
22389;BME280;11362;48.102;11.620;2023-03-03T09:07:29;95352.28;;;23.59;30.59
22389;BME280;11362;48.102;11.620;2023-03-03T09:09:54;95350.72;;;23.58;30.67
22389;BME280;11362;48.102;11.620;2023-03-03T09:12:41;95355.84;;;23.59;30.67
22389;BME280;11362;48.102;11.620;2023-03-03T09:15:31;95355.84;;;23.59;30.70
22389;BME280;11362;48.102;11.620;2023-03-03T09:20:51;95355.84;;;23.59;30.72
22389;BME280;11362;48.102;11.620;2023-03-03T09:25:54;95354.28;;;23.58;30.59
22389;BME280;11362;48.102;11.620;2023-03-03T09:28:24;95347.53;;;23.59;30.65
22389;BME280;11362;48.102;11.620;2023-03-03T09:30:51;95354.28;;;23.58;30.66
22389;BME280;11362;48.102;11.620;2023-03-03T09:33:28;95360.59;;;23.59;30.68
22389;BME280;11362;48.102;11.620;2023-03-03T09:38:41;95367.75;;;23.60;30.68
22389;BME280;11362;48.102;11.620;2023-03-03T09:44:05;95371.28;;;23.60;30.54
22389;BME280;11362;48.102;11.620;2023-03-03T09:52:13;95374.84;;;23.61;30.65
22389;BME280;11362;48.102;11.620;2023-03-03T09:54:55;95376.84;;;23.60;30.64
22389;BME280;11362;48.102;11.620;2023-03-03T10:05:44;95385.16;;;23.60;30.62
22389;BME280;11362;48.102;11.620;2023-03-03T10:11:21;95359.78;;;23.62;30.62
22389;BME280;11362;48.102;11.620;2023-03-03T10:17:16;95416.44;;;23.61;30.58
22389;BME280;11362;48.102;11.620;2023-03-03T10:33:51;95403.84;;;23.56;30.32
22389;BME280;11362;48.102;11.620;2023-03-03T10:39:40;95412.91;;;23.57;30.30
22389;BME280;11362;48.102;11.620;2023-03-03T10:42:27;95401.06;;;23.56;30.37
22389;BME280;11362;48.102;11.620;2023-03-03T10:45:25;95401.84;;;23.57;30.29
22389;BME280;11362;48.102;11.620;2023-03-03T10:48:13;95403.03;;;23.56;30.30
22389;BME280;11362;48.102;11.620;2023-03-03T10:53:31;95390.75;;;23.57;30.25
22389;BME280;11362;48.102;11.620;2023-03-03T10:56:15;95387.19;;;23.56;30.20
22389;BME280;11362;48.102;11.620;2023-03-03T10:58:57;95383.63;;;23.56;30.12
22389;BME280;11362;48.102;11.620;2023-03-03T11:01:46;95387.19;;;23.56;30.11
22389;BME280;11362;48.102;11.620;2023-03-03T11:07:06;95389.16;;;23.56;30.12
22389;BME280;11362;48.102;11.620;2023-03-03T11:09:59;95399.47;;;23.55;30.09
22389;BME280;11362;48.102;11.620;2023-03-03T11:12:33;95403.44;;;23.54;30.16
22389;BME280;11362;48.102;11.620;2023-03-03T11:20:37;95408.22;;;23.54;30.11
22389;BME280;11362;48.102;11.620;2023-03-03T11:23:31;95409.78;;;23.55;30.06
22389;BME280;11362;48.102;11.620;2023-03-03T11:26:11;95414.53;;;23.54;30.06
22389;BME280;11362;48.102;11.620;2023-03-03T11:28:55;95409.78;;;23.55;30.18
22389;BME280;11362;48.102;11.620;2023-03-03T11:31:38;95409.78;;;23.55;30.04
22389;BME280;11362;48.102;11.620;2023-03-03T11:37:13;95401.88;;;23.53;30.11
22389;BME280;11362;48.102;11.620;2023-03-03T11:39:43;95399.91;;;23.54;30.05
22389;BME280;11362;48.102;11.620;2023-03-03T11:42:25;95397.91;;;23.54;30.02
22389;BME280;11362;48.102;11.620;2023-03-03T11:45:19;95403.44;;;23.54;30.00
22389;BME280;11362;48.102;11.620;2023-03-03T11:47:53;95390.78;;;23.53;30.01
22389;BME280;11362;48.102;11.620;2023-03-03T11:50:35;95380.50;;;23.54;29.93
22389;BME280;11362;48.102;11.620;2023-03-03T11:53:30;95384.44;;;23.56;29.97
22389;BME280;11362;48.102;11.620;2023-03-03T11:56:13;95366.19;;;23.55;29.91
22389;BME280;11362;48.102;11.620;2023-03-03T11:59:06;95367.78;;;23.56;30.00
22389;BME280;11362;48.102;11.620;2023-03-03T12:01:48;95373.34;;;23.56;29.94
22389;BME280;11362;48.102;11.620;2023-03-03T12:04:42;95372.13;;;23.57;29.89
22389;BME280;11362;48.102;11.620;2023-03-03T12:10:15;95362.25;;;23.56;30.03
22389;BME280;11362;48.102;11.620;2023-03-03T12:12:46;95370.56;;;23.56;29.84
22389;BME280;11362;48.102;11.620;2023-03-03T12:15:29;95361.44;;;23.56;30.00
22389;BME280;11362;48.102;11.620;2023-03-03T12:18:19;95363.81;;;23.57;29.83
22389;BME280;11362;48.102;11.620;2023-03-03T12:21:05;95360.66;;;23.55;29.92
22389;BME280;11362;48.102;11.620;2023-03-03T12:24:03;95355.91;;;23.56;29.95
22389;BME280;11362;48.102;11.620;2023-03-03T12:26:38;95356.69;;;23.56;29.94
22389;BME280;11362;48.102;11.620;2023-03-03T12:29:23;95353.50;;;23.58;29.90
22389;BME280;11362;48.102;11.620;2023-03-03T12:32:04;95357.41;;;23.60;29.83
22389;BME280;11362;48.102;11.620;2023-03-03T12:40:12;95359.03;;;23.58;29.73
22389;BME280;11362;48.102;11.620;2023-03-03T12:48:20;95362.25;;;23.56;29.92
22389;BME280;11362;48.102;11.620;2023-03-03T12:50:54;95355.09;;;23.55;29.77
22389;BME280;11362;48.102;11.620;2023-03-03T12:56:05;95347.59;;;23.56;29.88
22389;BME280;11362;48.102;11.620;2023-03-03T13:01:40;95342.84;;;23.56;30.06
22389;BME280;11362;48.102;11.620;2023-03-03T13:07:05;95347.59;;;23.56;29.83
22389;BME280;11362;48.102;11.620;2023-03-03T13:12:30;95353.91;;;23.56;29.83
22389;BME280;11362;48.102;11.620;2023-03-03T13:15:20;95351.16;;;23.56;29.84
22389;BME280;11362;48.102;11.620;2023-03-03T13:20:54;95347.19;;;23.57;29.74
22389;BME280;11362;48.102;11.620;2023-03-03T13:29:18;95351.88;;;23.60;29.69
22389;BME280;11362;48.102;11.620;2023-03-03T13:31:53;95343.56;;;23.60;29.68
22389;BME280;11362;48.102;11.620;2023-03-03T13:37:17;95341.16;;;23.62;29.73
22389;BME280;11362;48.102;11.620;2023-03-03T13:40:26;95336.00;;;23.64;29.65
22389;BME280;11362;48.102;11.620;2023-03-03T13:43:01;95346.25;;;23.67;29.63
22389;BME280;11362;48.102;11.620;2023-03-03T13:45:36;95343.09;;;23.65;29.73
22389;BME280;11362;48.102;11.620;2023-03-03T13:50:50;95339.44;;;23.72;29.54
22389;BME280;11362;48.102;11.620;2023-03-03T13:53:53;95321.56;;;23.76;29.67
22389;BME280;11362;48.102;11.620;2023-03-03T13:59:41;95310.34;;;23.83;29.54
22389;BME280;11362;48.102;11.620;2023-03-03T14:05:15;95313.53;;;23.85;29.55
22389;BME280;11362;48.102;11.620;2023-03-03T14:07:45;95314.69;;;23.88;29.73
22389;BME280;11362;48.102;11.620;2023-03-03T14:12:50;95313.06;;;23.90;29.61
22389;BME280;11362;48.102;11.620;2023-03-03T14:16:14;95310.28;;;23.90;29.57
22389;BME280;11362;48.102;11.620;2023-03-03T14:18:54;95305.53;;;23.91;29.54
22389;BME280;11362;48.102;11.620;2023-03-03T14:21:31;95300.41;;;23.89;29.44
22389;BME280;11362;48.102;11.620;2023-03-03T14:24:10;95298.84;;;23.88;29.52
22389;BME280;11362;48.102;11.620;2023-03-03T14:26:47;95305.19;;;23.85;29.54
22389;BME280;11362;48.102;11.620;2023-03-03T14:29:31;95287.03;;;23.81;29.66
22389;BME280;11362;48.102;11.620;2023-03-03T14:32:02;95293.00;;;23.79;29.67
22389;BME280;11362;48.102;11.620;2023-03-03T14:34:44;95295.41;;;23.77;29.59
22389;BME280;11362;48.102;11.620;2023-03-03T14:42:37;95293.81;;;23.76;29.60
22389;BME280;11362;48.102;11.620;2023-03-03T14:45:22;95303.34;;;23.75;29.64
22389;BME280;11362;48.102;11.620;2023-03-03T14:47:53;95302.97;;;23.73;29.58
22389;BME280;11362;48.102;11.620;2023-03-03T14:50:46;95289.91;;;23.74;29.52
22389;BME280;11362;48.102;11.620;2023-03-03T14:55:49;95302.97;;;23.73;29.61
22389;BME280;11362;48.102;11.620;2023-03-03T14:58:37;95301.41;;;23.72;29.58
22389;BME280;11362;48.102;11.620;2023-03-03T15:01:19;95295.88;;;23.72;29.64
22389;BME280;11362;48.102;11.620;2023-03-03T15:04:00;95297.06;;;23.71;29.53
22389;BME280;11362;48.102;11.620;2023-03-03T15:09:33;95299.06;;;23.71;29.55
22389;BME280;11362;48.102;11.620;2023-03-03T15:11:59;95298.28;;;23.70;29.47
22389;BME280;11362;48.102;11.620;2023-03-03T15:17:16;95287.59;;;23.69;29.70
22389;BME280;11362;48.102;11.620;2023-03-03T15:19:52;95293.16;;;23.69;29.44
22389;BME280;11362;48.102;11.620;2023-03-03T15:28:09;95300.66;;;23.68;29.72
22389;BME280;11362;48.102;11.620;2023-03-03T15:31:19;95305.00;;;23.69;29.57
22389;BME280;11362;48.102;11.620;2023-03-03T15:36:26;95294.72;;;23.70;29.49
22389;BME280;11362;48.102;11.620;2023-03-03T15:39:02;95300.25;;;23.70;29.61
22389;BME280;11362;48.102;11.620;2023-03-03T15:41:42;95301.47;;;23.69;29.75
22389;BME280;11362;48.102;11.620;2023-03-03T15:44:12;95303.44;;;23.68;29.61
22389;BME280;11362;48.102;11.620;2023-03-03T15:47:03;95305.84;;;23.66;29.68
22389;BME280;11362;48.102;11.620;2023-03-03T15:52:40;95297.16;;;23.64;29.68